createdAt,value
2018-05-02T00:00:55.860Z,42.55
2018-05-02T00:03:33.762Z,42.22
2018-05-02T00:06:04.800Z,41.94
2018-05-02T00:08:35.802Z,41.58
2018-05-02T00:11:06.852Z,41.28
2018-05-02T00:13:37.890Z,41.06
2018-05-02T00:16:08.948Z,40.77
2018-05-02T00:18:39.999Z,40.33
2018-05-02T00:21:10.988Z,40.33
2018-05-02T00:23:42.000Z,40.18
2018-05-02T00:26:13.052Z,40.07
2018-05-02T00:28:44.050Z,40.02
2018-05-02T00:31:15.086Z,40.19
2018-05-02T00:33:46.086Z,41.09
2018-05-02T00:36:17.077Z,41.17
2018-05-02T00:38:48.081Z,40.91
2018-05-02T00:41:19.081Z,40.93
2018-05-02T00:43:50.034Z,40.95
2018-05-02T00:46:20.990Z,41.05
2018-05-02T00:49:04.353Z,40.68
2018-05-02T00:51:35.362Z,40.34
2018-05-02T00:54:06.394Z,40.47
2018-05-02T00:56:37.424Z,40.67
2018-05-02T00:59:08.422Z,40.73
2018-05-02T01:01:39.389Z,40.75
2018-05-02T01:04:10.417Z,40.65
2018-05-02T01:06:41.422Z,40.58
2018-05-02T01:09:12.415Z,40.85
2018-05-02T01:11:43.378Z,40.91
2018-05-02T01:14:14.365Z,40.70
2018-05-02T01:16:45.403Z,40.74
2018-05-02T01:19:16.428Z,40.74
2018-05-02T01:21:47.442Z,40.42
2018-05-02T01:24:18.431Z,40.51
2018-05-02T01:26:49.441Z,40.69
2018-05-02T01:29:20.431Z,40.68
2018-05-02T01:31:51.371Z,40.52
2018-05-02T01:34:22.440Z,40.76
2018-05-02T01:36:53.456Z,40.65
2018-05-02T01:39:24.458Z,40.68
2018-05-02T01:41:55.504Z,40.65
2018-05-02T01:44:26.515Z,40.48
2018-05-02T01:46:57.475Z,40.97
2018-05-02T01:49:28.494Z,41.20
2018-05-02T01:51:59.505Z,41.17
2018-05-02T01:54:30.524Z,41.11
2018-05-02T01:57:01.588Z,41.26
2018-05-02T01:59:32.633Z,41.08
2018-05-02T02:02:03.647Z,41.14
2018-05-02T02:04:34.617Z,41.25
2018-05-02T02:07:05.610Z,41.35
2018-05-02T02:09:36.655Z,41.33
2018-05-02T02:12:07.658Z,41.32
2018-05-02T02:14:38.728Z,41.39
2018-05-02T02:17:09.768Z,41.11
2018-05-02T02:19:40.797Z,40.98
2018-05-02T02:22:11.851Z,40.85
2018-05-02T02:24:42.864Z,40.78
2018-05-02T02:27:13.876Z,40.86
2018-05-02T02:29:44.848Z,40.82
2018-05-02T02:32:15.822Z,40.59
2018-05-02T02:34:46.826Z,40.50
2018-05-02T02:37:17.848Z,40.75
2018-05-02T02:39:48.854Z,40.74
2018-05-02T02:42:19.897Z,40.69
2018-05-02T02:44:50.912Z,40.63
2018-05-02T02:47:21.904Z,40.53
2018-05-02T02:49:52.910Z,40.47
2018-05-02T02:52:23.915Z,40.66
2018-05-02T02:54:54.964Z,40.47
2018-05-02T02:57:25.944Z,40.13
2018-05-02T02:59:56.973Z,40.24
2018-05-02T03:02:27.952Z,40.40
2018-05-02T03:04:58.963Z,41.03
2018-05-02T03:07:29.931Z,40.94
2018-05-02T03:10:00.916Z,40.77
2018-05-02T03:12:31.876Z,40.79
2018-05-02T03:15:02.944Z,40.68
2018-05-02T03:17:33.958Z,40.51
2018-05-02T03:20:04.944Z,40.57
2018-05-02T03:22:35.934Z,40.68
2018-05-02T03:25:06.942Z,40.58
2018-05-02T03:27:37.918Z,40.53
2018-05-02T03:30:08.923Z,40.41
2018-05-02T03:32:39.935Z,40.70
2018-05-02T03:35:10.937Z,40.99
2018-05-02T03:37:41.946Z,41.04
2018-05-02T03:40:12.995Z,41.20
2018-05-02T03:42:44.021Z,41.38
2018-05-02T03:45:15.024Z,41.47
2018-05-02T03:47:46.040Z,41.59
2018-05-02T03:50:17.088Z,41.73
2018-05-02T03:52:48.160Z,41.98
2018-05-02T03:55:19.168Z,42.08
2018-05-02T03:57:50.148Z,42.13
2018-05-02T04:00:33.261Z,41.88
2018-05-02T04:03:16.660Z,41.83
2018-05-02T04:06:00.118Z,41.84
2018-05-02T04:08:31.220Z,41.74
2018-05-02T04:11:02.238Z,41.68
2018-05-02T04:13:33.248Z,41.88
2018-05-02T04:16:04.270Z,41.80
2018-05-02T04:18:35.238Z,41.62
2018-05-02T04:21:06.250Z,41.46
2018-05-02T04:23:37.226Z,41.34
2018-05-02T04:26:08.281Z,41.07
2018-05-02T04:28:39.273Z,41.02
2018-05-02T04:31:10.285Z,41.16
2018-05-02T04:33:41.300Z,40.95
2018-05-02T04:36:12.433Z,40.74
2018-05-02T04:38:43.825Z,40.63
2018-05-02T04:41:14.919Z,40.44
2018-05-02T04:43:46.040Z,40.20
2018-05-02T04:46:17.022Z,40.06
2018-05-02T04:48:48.010Z,39.84
2018-05-02T04:51:19.079Z,39.48
2018-05-02T04:53:50.065Z,39.47
2018-05-02T04:56:21.101Z,39.32
2018-05-02T04:58:52.080Z,39.50
2018-05-02T05:01:23.084Z,39.46
2018-05-02T05:03:54.091Z,39.35
2018-05-02T05:06:25.104Z,39.36
2018-05-02T05:08:56.103Z,39.36
2018-05-02T05:11:27.100Z,39.26
2018-05-02T05:13:58.082Z,39.54
2018-05-02T05:16:29.132Z,39.19
2018-05-02T05:19:00.165Z,38.77
2018-05-02T05:21:31.184Z,38.40
2018-05-02T05:24:02.148Z,37.99
2018-05-02T05:26:33.158Z,37.94
2018-05-02T05:29:04.174Z,38.23
2018-05-02T05:31:35.196Z,38.10
2018-05-02T05:34:06.188Z,38.18
2018-05-02T05:36:37.210Z,38.24
2018-05-02T05:39:08.194Z,38.36
2018-05-02T05:41:39.195Z,37.98
2018-05-02T05:44:10.207Z,37.78
2018-05-02T05:46:41.201Z,37.15
2018-05-02T05:49:12.246Z,36.51
2018-05-02T05:51:43.262Z,36.29
2018-05-02T05:54:14.379Z,36.43
2018-05-02T05:56:45.302Z,36.05
2018-05-02T05:59:16.361Z,35.36
2018-05-02T06:01:47.417Z,35.25
2018-05-02T06:04:18.418Z,35.07
2018-05-02T06:06:49.396Z,35.06
2018-05-02T06:09:20.409Z,35.03
2018-05-02T06:11:51.384Z,34.93
2018-05-02T06:14:22.415Z,35.09
2018-05-02T06:16:53.415Z,34.95
2018-05-02T06:19:24.473Z,35.50
2018-05-02T06:21:55.502Z,35.64
2018-05-02T06:24:26.528Z,35.73
2018-05-02T06:26:57.546Z,35.30
2018-05-02T06:29:28.520Z,35.50
2018-05-02T06:31:59.665Z,35.39
2018-05-02T06:34:30.600Z,35.30
2018-05-02T06:37:01.679Z,34.96
2018-05-02T06:39:32.654Z,34.29
2018-05-02T06:42:03.697Z,34.43
2018-05-02T06:44:34.687Z,34.54
2018-05-02T06:47:05.679Z,34.63
2018-05-02T06:49:36.725Z,34.44
2018-05-02T06:52:07.714Z,34.05
2018-05-02T06:54:38.708Z,33.91
2018-05-02T06:57:09.679Z,34.02
2018-05-02T06:59:40.674Z,34.12
2018-05-02T07:02:11.658Z,34.07
2018-05-02T07:04:42.647Z,33.63
2018-05-02T07:07:13.642Z,33.60
2018-05-02T07:12:22.349Z,32.72
2018-05-02T07:14:53.374Z,32.47
2018-05-02T07:17:24.379Z,31.97
2018-05-02T07:19:55.410Z,31.70
2018-05-02T07:22:26.395Z,31.63
2018-05-02T07:24:57.392Z,30.95
2018-05-02T07:27:28.367Z,30.31
2018-05-02T07:29:59.375Z,30.58
2018-05-02T07:32:30.414Z,30.30
2018-05-02T07:35:01.359Z,28.95
2018-05-02T07:37:32.321Z,28.79
2018-05-02T07:40:03.324Z,28.10
2018-05-02T07:42:34.310Z,26.29
2018-05-02T07:45:05.270Z,24.10
2018-05-02T07:47:36.246Z,23.07
2018-05-02T07:50:07.264Z,22.46
2018-05-02T07:52:38.226Z,21.83
2018-05-02T07:55:09.276Z,20.98
2018-05-02T07:57:40.241Z,20.08
2018-05-02T08:00:11.253Z,20.48
2018-05-02T08:02:49.219Z,20.32
2018-05-02T08:05:20.241Z,19.98
2018-05-02T08:07:51.249Z,18.33
2018-05-02T08:10:22.273Z,15.86
2018-05-02T08:12:53.247Z,13.15
2018-05-02T08:15:24.248Z,10.42
2018-05-02T08:17:55.240Z,8.57
2018-05-02T08:20:26.234Z,7.02
2018-05-02T08:23:04.103Z,8.36
2018-05-02T08:25:35.079Z,9.60
2018-05-02T08:28:06.116Z,11.78
2018-05-02T08:30:37.122Z,13.37
2018-05-02T08:33:08.127Z,14.24
2018-05-02T08:35:39.136Z,14.82
2018-05-02T08:38:10.180Z,14.47
2018-05-02T08:40:41.183Z,14.50
2018-05-02T08:43:12.195Z,11.88
2018-05-02T08:45:43.238Z,9.07
2018-05-02T08:48:14.290Z,6.88
2018-05-02T08:50:45.346Z,5.70
2018-05-02T08:53:16.367Z,4.49
2018-05-02T08:55:47.387Z,3.37
2018-05-02T08:58:18.430Z,3.61
2018-05-02T09:00:49.446Z,4.21
2018-05-02T09:03:22.953Z,3.86
2018-05-02T09:05:53.956Z,3.90
2018-05-02T09:08:24.924Z,4.28
2018-05-02T09:10:55.929Z,4.99
2018-05-02T09:13:26.930Z,4.57
2018-05-02T09:15:57.986Z,5.26
2018-05-02T09:18:29.018Z,4.53
2018-05-02T09:21:00.336Z,4.40
2018-05-02T09:23:31.400Z,4.30
2018-05-02T09:26:02.446Z,3.76
2018-05-02T09:28:33.477Z,5.12
2018-05-02T09:31:04.546Z,5.95
2018-05-02T09:33:35.579Z,5.83
2018-05-02T09:36:06.635Z,6.06
2018-05-02T09:38:37.653Z,5.59
2018-05-02T09:41:08.666Z,4.93
2018-05-02T09:43:39.700Z,5.37
2018-05-02T09:46:10.744Z,4.79
2018-05-02T09:48:41.813Z,4.30
2018-05-02T09:51:12.791Z,4.56
2018-05-02T09:53:43.789Z,5.38
2018-05-02T09:56:14.876Z,6.70
2018-05-02T09:58:45.892Z,7.63
2018-05-02T10:01:16.909Z,9.50
2018-05-02T10:03:47.960Z,10.91
2018-05-02T10:06:19.004Z,11.06
2018-05-02T10:08:50.000Z,10.25
2018-05-02T10:11:21.042Z,9.98
2018-05-02T10:13:52.018Z,10.11
2018-05-02T10:16:23.029Z,10.93
2018-05-02T10:18:54.066Z,11.54
2018-05-02T10:21:25.097Z,12.10
2018-05-02T10:23:56.157Z,12.81
2018-05-02T10:26:27.187Z,13.11
2018-05-02T10:28:58.207Z,13.42
2018-05-02T10:31:29.226Z,13.93
2018-05-02T10:34:00.218Z,13.53
2018-05-02T10:36:31.248Z,13.44
2018-05-02T10:39:02.328Z,13.63
2018-05-02T10:41:33.363Z,14.31
2018-05-02T10:44:04.378Z,14.23
2018-05-02T10:46:35.419Z,14.44
2018-05-02T10:49:06.452Z,14.56
2018-05-02T10:51:37.562Z,14.50
2018-05-02T10:54:08.640Z,14.70
2018-05-02T10:56:39.821Z,15.02
2018-05-02T10:59:10.898Z,14.58
2018-05-02T11:01:41.962Z,14.36
2018-05-02T11:04:13.178Z,14.27
2018-05-02T11:06:44.249Z,14.34
2018-05-02T11:09:15.302Z,14.88
2018-05-02T11:11:46.345Z,15.41
2018-05-02T11:14:17.460Z,16.06
2018-05-02T11:16:48.540Z,16.63
2018-05-02T11:19:19.591Z,16.82
2018-05-02T11:21:50.656Z,17.35
2018-05-02T11:24:21.678Z,18.13
2018-05-02T11:26:52.793Z,18.92
2018-05-02T11:29:23.861Z,19.27
2018-05-02T11:31:54.928Z,18.97
2018-05-02T11:34:26.014Z,19.10
2018-05-02T11:36:57.134Z,18.94
2018-05-02T11:39:28.194Z,18.51
2018-05-02T11:41:59.300Z,17.84
2018-05-02T11:44:30.376Z,18.41
2018-05-02T11:47:01.470Z,19.57
2018-05-02T11:49:33.211Z,21.07
2018-05-02T11:52:04.297Z,21.35
2018-05-02T11:54:35.420Z,21.00
2018-05-02T11:57:06.531Z,20.87
2018-05-02T11:59:37.573Z,21.51
2018-05-02T12:02:08.679Z,21.68
2018-05-02T12:04:39.733Z,22.28
2018-05-02T12:07:10.797Z,22.32
2018-05-02T12:09:41.860Z,22.51
2018-05-02T12:12:12.926Z,22.26
2018-05-02T12:14:44.002Z,21.61
2018-05-02T12:17:15.113Z,21.02
2018-05-02T12:19:46.226Z,20.85
2018-05-02T12:22:17.320Z,20.42
2018-05-02T12:24:48.400Z,19.92
2018-05-02T12:27:19.474Z,20.27
2018-05-02T12:29:50.617Z,20.46
2018-05-02T12:32:21.669Z,20.34
2018-05-02T12:34:52.754Z,20.18
2018-05-02T12:37:23.833Z,19.64
2018-05-02T12:39:55.562Z,19.81
2018-05-02T12:42:26.691Z,19.53
2018-05-02T12:44:57.753Z,19.50
2018-05-02T12:47:28.859Z,19.29
2018-05-02T12:50:00.522Z,19.25
2018-05-02T12:52:31.576Z,19.85
2018-05-02T12:55:02.635Z,20.37
2018-05-02T12:57:34.375Z,20.44
2018-05-02T13:00:05.476Z,20.31
2018-05-02T13:02:36.704Z,20.57
2018-05-02T13:05:07.704Z,20.81
2018-05-02T13:07:38.799Z,21.02
2018-05-02T13:10:09.922Z,20.98
2018-05-02T13:12:41.015Z,21.26
2018-05-02T13:15:12.106Z,20.77
2018-05-02T13:17:43.158Z,20.58
2018-05-02T13:20:14.274Z,20.41
2018-05-02T13:22:45.356Z,20.62
2018-05-02T13:25:16.442Z,20.60
2018-05-02T13:27:47.498Z,20.29
2018-05-02T13:30:18.584Z,19.61
2018-05-02T13:32:49.642Z,19.66
2018-05-02T13:35:20.740Z,19.53
2018-05-02T13:37:51.794Z,19.53
2018-05-02T13:40:22.868Z,19.09
2018-05-02T13:42:53.948Z,19.87
2018-05-02T13:45:25.010Z,19.60
2018-05-02T13:47:56.082Z,19.45
2018-05-02T13:50:27.235Z,19.93
2018-05-02T13:52:58.308Z,20.25
2018-05-02T13:55:29.489Z,20.15
2018-05-02T13:58:00.524Z,20.70
2018-05-02T14:00:31.675Z,21.33
2018-05-02T14:03:02.789Z,21.52
2018-05-02T14:05:33.911Z,21.31
2018-05-02T14:08:04.931Z,20.88
2018-05-02T14:10:35.936Z,20.39
2018-05-02T14:13:06.967Z,20.37
2018-05-02T14:15:37.971Z,20.65
2018-05-02T14:18:08.958Z,20.99
2018-05-02T14:20:39.965Z,21.23
2018-05-02T14:23:10.928Z,21.68
2018-05-02T14:25:41.926Z,21.90
2018-05-02T14:28:12.944Z,22.30
2018-05-02T14:30:43.923Z,22.70
2018-05-02T14:33:14.937Z,22.79
2018-05-02T14:35:45.938Z,23.14
2018-05-02T14:38:17.010Z,23.39
2018-05-02T14:40:48.006Z,23.88
2018-05-02T14:43:19.012Z,23.97
2018-05-02T14:45:50.059Z,24.32
2018-05-02T14:48:21.059Z,24.74
2018-05-02T14:50:52.073Z,25.33
2018-05-02T14:53:23.067Z,26.09
2018-05-02T14:55:54.079Z,26.39
2018-05-02T14:58:25.094Z,26.25
2018-05-02T15:00:56.067Z,26.22
2018-05-02T15:03:27.069Z,26.20
2018-05-02T15:05:58.085Z,26.24
2018-05-02T15:08:29.073Z,26.30
2018-05-02T15:11:00.086Z,26.30
2018-05-02T15:13:38.185Z,26.39
2018-05-02T15:16:09.217Z,26.34
2018-05-02T15:18:41.065Z,25.93
2018-05-02T15:21:12.115Z,25.56
2018-05-02T15:23:43.050Z,25.37
2018-05-02T15:26:14.061Z,25.37
2018-05-02T15:28:45.080Z,25.55
2018-05-02T15:31:16.071Z,25.83
2018-05-02T15:33:47.076Z,26.18
2018-05-02T15:36:18.061Z,26.50
2018-05-02T15:38:49.093Z,27.11
2018-05-02T15:41:20.051Z,27.55
2018-05-02T15:43:51.067Z,27.93
2018-05-02T15:46:22.094Z,28.28
2018-05-02T15:48:53.167Z,28.52
2018-05-02T15:54:20.114Z,28.69
2018-05-02T15:56:51.089Z,28.76
2018-05-02T15:59:22.103Z,28.72
2018-05-02T16:01:53.121Z,29.03
2018-05-02T16:04:24.125Z,28.96
2018-05-02T16:06:55.100Z,28.86
2018-05-02T16:09:26.149Z,28.60
2018-05-02T16:11:57.128Z,28.26
2018-05-02T16:14:28.132Z,27.99
2018-05-02T16:16:59.138Z,28.01
2018-05-02T16:19:30.252Z,27.78
2018-05-02T16:22:01.343Z,27.68
2018-05-02T16:24:32.336Z,27.56
2018-05-02T16:27:04.068Z,27.46
2018-05-02T16:29:35.068Z,27.86
2018-05-02T16:32:06.099Z,27.79
2018-05-02T16:34:37.099Z,27.73
2018-05-02T16:37:08.132Z,27.69
2018-05-02T16:39:39.146Z,27.83
2018-05-02T16:42:10.168Z,28.01
2018-05-02T16:44:41.164Z,28.04
2018-05-02T16:47:12.172Z,28.16
2018-05-02T16:49:43.216Z,28.42
2018-05-02T16:52:14.229Z,28.71
2018-05-02T16:54:45.267Z,28.93
2018-05-02T16:57:16.245Z,29.13
2018-05-02T16:59:47.298Z,29.51
2018-05-02T17:02:18.294Z,29.91
2018-05-02T17:04:49.350Z,30.32
2018-05-02T17:07:20.369Z,30.73
2018-05-02T17:09:51.329Z,31.10
2018-05-02T17:12:22.365Z,31.38
2018-05-02T17:14:53.443Z,31.65
2018-05-02T17:17:24.466Z,32.09
2018-05-02T17:19:55.474Z,32.64
2018-05-02T17:22:26.507Z,32.89
2018-05-02T17:24:57.565Z,33.08
2018-05-02T17:27:28.538Z,33.30
2018-05-02T17:29:59.531Z,33.35
2018-05-02T17:32:30.514Z,33.60
2018-05-02T17:35:01.545Z,34.04
2018-05-02T17:37:32.544Z,34.50
2018-05-02T17:40:03.664Z,34.92
2018-05-02T17:42:34.654Z,35.01
2018-05-02T17:45:05.692Z,35.26
2018-05-02T17:47:36.674Z,35.45
2018-05-02T17:50:07.724Z,35.73
2018-05-02T17:52:38.709Z,35.81
2018-05-02T17:55:09.719Z,35.91
2018-05-02T17:57:40.736Z,36.08
2018-05-02T18:00:11.778Z,36.20
2018-05-02T18:02:42.916Z,36.40
2018-05-02T18:05:13.937Z,36.34
2018-05-02T18:07:44.925Z,36.61
2018-05-02T18:10:15.986Z,36.94
2018-05-02T18:12:47.025Z,37.07
2018-05-02T18:15:18.049Z,37.20
2018-05-02T18:17:49.045Z,37.43
2018-05-02T18:20:20.035Z,37.52
2018-05-02T18:22:51.228Z,37.52
2018-05-02T18:25:22.143Z,37.72
2018-05-02T18:27:53.196Z,38.05
2018-05-02T18:30:24.191Z,38.09
2018-05-02T18:32:55.178Z,38.23
2018-05-02T18:35:26.228Z,38.33
2018-05-02T18:37:57.324Z,38.52
2018-05-02T18:40:28.294Z,38.70
2018-05-02T18:42:59.322Z,38.82
2018-05-02T18:45:30.735Z,39.13
2018-05-02T18:48:02.598Z,39.36
2018-05-02T18:50:34.057Z,39.66
2018-05-02T18:53:05.035Z,39.94
2018-05-02T18:55:36.056Z,40.09
2018-05-02T18:58:07.062Z,40.34
2018-05-02T19:00:38.112Z,40.35
2018-05-02T19:03:09.111Z,40.52
2018-05-02T19:05:40.112Z,40.50
2018-05-02T19:08:11.168Z,40.64
2018-05-02T19:10:42.177Z,40.62
2018-05-02T19:13:13.179Z,40.81
2018-05-02T19:15:44.201Z,40.89
2018-05-02T19:18:21.324Z,40.90
2018-05-02T19:20:52.309Z,41.14
2018-05-02T19:23:23.274Z,41.20
2018-05-02T19:26:00.236Z,41.30
2018-05-02T19:28:31.268Z,41.55
2018-05-02T19:31:08.333Z,41.81
2018-05-02T19:33:45.441Z,41.93
2018-05-02T19:36:16.445Z,42.15
2018-05-02T19:38:47.458Z,42.26
2018-05-02T19:41:24.621Z,42.51
2018-05-02T19:44:01.522Z,42.92
2018-05-02T19:46:32.521Z,43.01
2018-05-02T19:49:03.500Z,43.09
2018-05-02T19:51:40.520Z,43.10
2018-05-02T19:54:11.550Z,43.19
2018-05-02T19:56:42.584Z,43.32
